sensor_id;sensor_type;location;lat;lon;timestamp;P1;durP1;ratioP1;P2;durP2;ratioP2
25531;SDS011;13429;48.816;9.118;2023-08-31T00:02:07;5.53;;;1.88;;
25531;SDS011;13429;48.816;9.118;2023-08-31T00:04:34;2.45;;;1.60;;
25531;SDS011;13429;48.816;9.118;2023-08-31T00:07:00;5.85;;;2.05;;
25531;SDS011;13429;48.816;9.118;2023-08-31T00:09:26;9.93;;;2.05;;
25531;SDS011;13429;48.816;9.118;2023-08-31T00:11:54;5.32;;;2.17;;
25531;SDS011;13429;48.816;9.118;2023-08-31T00:14:21;4.00;;;1.55;;
25531;SDS011;13429;48.816;9.118;2023-08-31T00:16:48;4.75;;;1.85;;
25531;SDS011;13429;48.816;9.118;2023-08-31T00:19:15;2.28;;;1.65;;
25531;SDS011;13429;48.816;9.118;2023-08-31T00:21:41;4.90;;;2.08;;
25531;SDS011;13429;48.816;9.118;2023-08-31T00:24:07;2.88;;;1.48;;
25531;SDS011;13429;48.816;9.118;2023-08-31T00:26:34;4.05;;;2.03;;
25531;SDS011;13429;48.816;9.118;2023-08-31T00:29:05;3.80;;;2.17;;
25531;SDS011;13429;48.816;9.118;2023-08-31T00:31:31;5.55;;;2.42;;
25531;SDS011;13429;48.816;9.118;2023-08-31T00:33:57;7.10;;;2.30;;
25531;SDS011;13429;48.816;9.118;2023-08-31T00:36:23;3.60;;;1.83;;
25531;SDS011;13429;48.816;9.118;2023-08-31T00:38:49;3.67;;;2.38;;
25531;SDS011;13429;48.816;9.118;2023-08-31T00:41:15;7.13;;;2.50;;
25531;SDS011;13429;48.816;9.118;2023-08-31T00:43:41;4.55;;;2.47;;
25531;SDS011;13429;48.816;9.118;2023-08-31T00:46:07;5.05;;;2.50;;
25531;SDS011;13429;48.816;9.118;2023-08-31T00:48:33;10.52;;;2.78;;
25531;SDS011;13429;48.816;9.118;2023-08-31T00:50:59;4.78;;;2.55;;
25531;SDS011;13429;48.816;9.118;2023-08-31T00:53:26;3.47;;;2.17;;
25531;SDS011;13429;48.816;9.118;2023-08-31T00:55:52;3.95;;;3.00;;
25531;SDS011;13429;48.816;9.118;2023-08-31T00:58:18;3.60;;;2.20;;
25531;SDS011;13429;48.816;9.118;2023-08-31T01:06:02;5.55;;;2.10;;
25531;SDS011;13429;48.816;9.118;2023-08-31T01:08:47;6.05;;;2.38;;
25531;SDS011;13429;48.816;9.118;2023-08-31T01:16:19;4.00;;;2.20;;
25531;SDS011;13429;48.816;9.118;2023-08-31T01:18:45;5.38;;;2.10;;
25531;SDS011;13429;48.816;9.118;2023-08-31T01:21:25;4.00;;;2.42;;
25531;SDS011;13429;48.816;9.118;2023-08-31T01:26:19;5.50;;;2.63;;
25531;SDS011;13429;48.816;9.118;2023-08-31T01:28:49;4.72;;;2.67;;
25531;SDS011;13429;48.816;9.118;2023-08-31T01:31:15;5.65;;;2.33;;
25531;SDS011;13429;48.816;9.118;2023-08-31T01:33:42;4.60;;;2.20;;
25531;SDS011;13429;48.816;9.118;2023-08-31T01:38:40;4.55;;;3.10;;
25531;SDS011;13429;48.816;9.118;2023-08-31T01:41:10;5.32;;;3.00;;
25531;SDS011;13429;48.816;9.118;2023-08-31T01:43:37;10.02;;;2.78;;
25531;SDS011;13429;48.816;9.118;2023-08-31T01:46:06;9.85;;;2.58;;
25531;SDS011;13429;48.816;9.118;2023-08-31T01:48:42;4.25;;;2.78;;
25531;SDS011;13429;48.816;9.118;2023-08-31T01:51:08;5.38;;;2.75;;
25531;SDS011;13429;48.816;9.118;2023-08-31T01:53:34;4.70;;;2.60;;
25531;SDS011;13429;48.816;9.118;2023-08-31T01:56:01;4.55;;;2.70;;
25531;SDS011;13429;48.816;9.118;2023-08-31T01:58:27;8.70;;;2.95;;
25531;SDS011;13429;48.816;9.118;2023-08-31T02:00:53;4.97;;;2.50;;
25531;SDS011;13429;48.816;9.118;2023-08-31T02:03:19;6.75;;;2.67;;
25531;SDS011;13429;48.816;9.118;2023-08-31T02:05:45;4.15;;;2.35;;
25531;SDS011;13429;48.816;9.118;2023-08-31T02:08:11;4.57;;;2.85;;
25531;SDS011;13429;48.816;9.118;2023-08-31T02:10:37;6.55;;;2.33;;
25531;SDS011;13429;48.816;9.118;2023-08-31T02:13:03;5.80;;;2.95;;
25531;SDS011;13429;48.816;9.118;2023-08-31T02:15:29;5.38;;;2.63;;
25531;SDS011;13429;48.816;9.118;2023-08-31T02:17:55;7.75;;;2.60;;
25531;SDS011;13429;48.816;9.118;2023-08-31T02:20:21;5.63;;;2.00;;
25531;SDS011;13429;48.816;9.118;2023-08-31T02:22:47;3.67;;;2.00;;
25531;SDS011;13429;48.816;9.118;2023-08-31T02:25:14;3.53;;;2.35;;
25531;SDS011;13429;48.816;9.118;2023-08-31T02:27:41;2.78;;;2.10;;
25531;SDS011;13429;48.816;9.118;2023-08-31T02:30:07;4.95;;;2.30;;
25531;SDS011;13429;48.816;9.118;2023-08-31T02:32:34;5.13;;;2.47;;
25531;SDS011;13429;48.816;9.118;2023-08-31T02:35:00;8.40;;;2.50;;
25531;SDS011;13429;48.816;9.118;2023-08-31T02:37:26;3.95;;;1.92;;
25531;SDS011;13429;48.816;9.118;2023-08-31T02:39:52;6.28;;;2.63;;
25531;SDS011;13429;48.816;9.118;2023-08-31T02:42:18;3.45;;;2.13;;
25531;SDS011;13429;48.816;9.118;2023-08-31T02:44:44;5.93;;;2.63;;
25531;SDS011;13429;48.816;9.118;2023-08-31T02:47:10;3.03;;;1.95;;
25531;SDS011;13429;48.816;9.118;2023-08-31T02:49:36;5.80;;;2.17;;
25531;SDS011;13429;48.816;9.118;2023-08-31T02:52:02;9.65;;;2.25;;
25531;SDS011;13429;48.816;9.118;2023-08-31T02:54:29;3.83;;;2.35;;
25531;SDS011;13429;48.816;9.118;2023-08-31T02:56:55;4.78;;;2.22;;
25531;SDS011;13429;48.816;9.118;2023-08-31T02:59:21;6.15;;;1.95;;
25531;SDS011;13429;48.816;9.118;2023-08-31T03:01:48;5.07;;;1.70;;
25531;SDS011;13429;48.816;9.118;2023-08-31T03:04:14;3.83;;;1.98;;
25531;SDS011;13429;48.816;9.118;2023-08-31T03:06:40;3.03;;;1.83;;
25531;SDS011;13429;48.816;9.118;2023-08-31T03:09:06;4.68;;;2.15;;
25531;SDS011;13429;48.816;9.118;2023-08-31T03:11:32;6.00;;;2.42;;
25531;SDS011;13429;48.816;9.118;2023-08-31T03:13:58;9.52;;;2.40;;
25531;SDS011;13429;48.816;9.118;2023-08-31T03:16:24;5.18;;;2.53;;
25531;SDS011;13429;48.816;9.118;2023-08-31T03:18:50;3.95;;;2.00;;
25531;SDS011;13429;48.816;9.118;2023-08-31T03:21:16;5.30;;;2.22;;
25531;SDS011;13429;48.816;9.118;2023-08-31T03:23:43;5.60;;;1.92;;
25531;SDS011;13429;48.816;9.118;2023-08-31T03:26:09;4.50;;;2.60;;
25531;SDS011;13429;48.816;9.118;2023-08-31T03:28:35;3.60;;;1.95;;
25531;SDS011;13429;48.816;9.118;2023-08-31T03:31:03;4.55;;;2.58;;
25531;SDS011;13429;48.816;9.118;2023-08-31T03:33:29;5.10;;;2.08;;
25531;SDS011;13429;48.816;9.118;2023-08-31T03:36:02;2.80;;;2.30;;
25531;SDS011;13429;48.816;9.118;2023-08-31T03:38:29;4.28;;;2.10;;
25531;SDS011;13429;48.816;9.118;2023-08-31T03:40:55;5.45;;;2.25;;
25531;SDS011;13429;48.816;9.118;2023-08-31T03:43:22;3.40;;;1.95;;
25531;SDS011;13429;48.816;9.118;2023-08-31T03:45:49;3.63;;;1.67;;
25531;SDS011;13429;48.816;9.118;2023-08-31T03:48:15;4.50;;;2.25;;
25531;SDS011;13429;48.816;9.118;2023-08-31T03:50:41;4.78;;;2.55;;
25531;SDS011;13429;48.816;9.118;2023-08-31T03:53:07;2.92;;;1.95;;
25531;SDS011;13429;48.816;9.118;2023-08-31T03:55:35;6.32;;;2.75;;
25531;SDS011;13429;48.816;9.118;2023-08-31T03:58:02;3.58;;;2.20;;
25531;SDS011;13429;48.816;9.118;2023-08-31T04:00:28;3.50;;;2.05;;
25531;SDS011;13429;48.816;9.118;2023-08-31T04:02:54;3.60;;;2.00;;
25531;SDS011;13429;48.816;9.118;2023-08-31T04:05:20;3.50;;;2.38;;
25531;SDS011;13429;48.816;9.118;2023-08-31T04:07:47;6.90;;;2.55;;
25531;SDS011;13429;48.816;9.118;2023-08-31T04:10:13;9.20;;;4.35;;
25531;SDS011;13429;48.816;9.118;2023-08-31T04:12:39;6.43;;;3.40;;
25531;SDS011;13429;48.816;9.118;2023-08-31T04:15:05;6.70;;;3.05;;
25531;SDS011;13429;48.816;9.118;2023-08-31T04:17:31;3.90;;;2.65;;
25531;SDS011;13429;48.816;9.118;2023-08-31T04:19:57;6.63;;;2.83;;
25531;SDS011;13429;48.816;9.118;2023-08-31T04:22:23;4.88;;;3.00;;
25531;SDS011;13429;48.816;9.118;2023-08-31T04:24:51;4.57;;;2.50;;
25531;SDS011;13429;48.816;9.118;2023-08-31T04:27:17;3.85;;;2.92;;
25531;SDS011;13429;48.816;9.118;2023-08-31T04:29:44;9.55;;;2.67;;
25531;SDS011;13429;48.816;9.118;2023-08-31T04:32:10;4.18;;;2.55;;
25531;SDS011;13429;48.816;9.118;2023-08-31T04:34:36;5.30;;;2.47;;
25531;SDS011;13429;48.816;9.118;2023-08-31T04:37:02;4.88;;;2.03;;
25531;SDS011;13429;48.816;9.118;2023-08-31T04:39:28;6.88;;;2.97;;
25531;SDS011;13429;48.816;9.118;2023-08-31T04:41:54;5.97;;;3.08;;
25531;SDS011;13429;48.816;9.118;2023-08-31T04:44:20;3.28;;;2.40;;
25531;SDS011;13429;48.816;9.118;2023-08-31T04:46:46;8.13;;;2.40;;
25531;SDS011;13429;48.816;9.118;2023-08-31T04:49:12;4.53;;;2.40;;
25531;SDS011;13429;48.816;9.118;2023-08-31T04:51:38;5.78;;;2.70;;
25531;SDS011;13429;48.816;9.118;2023-08-31T04:54:06;6.22;;;2.20;;
25531;SDS011;13429;48.816;9.118;2023-08-31T04:56:32;8.85;;;3.10;;
25531;SDS011;13429;48.816;9.118;2023-08-31T04:58:59;3.85;;;2.13;;
25531;SDS011;13429;48.816;9.118;2023-08-31T05:01:25;4.65;;;2.50;;
25531;SDS011;13429;48.816;9.118;2023-08-31T05:03:51;5.22;;;2.90;;
25531;SDS011;13429;48.816;9.118;2023-08-31T05:06:17;9.73;;;3.63;;
25531;SDS011;13429;48.816;9.118;2023-08-31T05:08:44;6.15;;;3.53;;
25531;SDS011;13429;48.816;9.118;2023-08-31T05:11:10;6.88;;;3.22;;
25531;SDS011;13429;48.816;9.118;2023-08-31T05:13:36;6.68;;;2.80;;
25531;SDS011;13429;48.816;9.118;2023-08-31T05:16:02;4.95;;;2.63;;
25531;SDS011;13429;48.816;9.118;2023-08-31T05:18:28;7.13;;;2.83;;
25531;SDS011;13429;48.816;9.118;2023-08-31T05:20:54;5.28;;;2.63;;
25531;SDS011;13429;48.816;9.118;2023-08-31T05:23:20;5.07;;;2.22;;
25531;SDS011;13429;48.816;9.118;2023-08-31T05:25:47;3.10;;;2.30;;
25531;SDS011;13429;48.816;9.118;2023-08-31T05:28:13;4.93;;;2.63;;
25531;SDS011;13429;48.816;9.118;2023-08-31T05:30:52;5.97;;;2.45;;
25531;SDS011;13429;48.816;9.118;2023-08-31T05:33:19;4.53;;;2.40;;
25531;SDS011;13429;48.816;9.118;2023-08-31T05:35:47;4.88;;;2.05;;
25531;SDS011;13429;48.816;9.118;2023-08-31T05:38:13;4.80;;;2.55;;
25531;SDS011;13429;48.816;9.118;2023-08-31T05:40:39;4.80;;;2.20;;
25531;SDS011;13429;48.816;9.118;2023-08-31T05:43:10;5.80;;;2.38;;
25531;SDS011;13429;48.816;9.118;2023-08-31T05:45:36;6.18;;;2.67;;
25531;SDS011;13429;48.816;9.118;2023-08-31T05:48:02;5.97;;;2.70;;
25531;SDS011;13429;48.816;9.118;2023-08-31T05:50:29;3.15;;;2.45;;
25531;SDS011;13429;48.816;9.118;2023-08-31T05:52:55;8.63;;;2.42;;
25531;SDS011;13429;48.816;9.118;2023-08-31T05:55:22;2.42;;;2.10;;
25531;SDS011;13429;48.816;9.118;2023-08-31T05:57:48;5.28;;;2.45;;
25531;SDS011;13429;48.816;9.118;2023-08-31T06:00:14;6.80;;;2.42;;
25531;SDS011;13429;48.816;9.118;2023-08-31T06:02:41;4.97;;;2.60;;
25531;SDS011;13429;48.816;9.118;2023-08-31T06:05:09;8.07;;;2.97;;
25531;SDS011;13429;48.816;9.118;2023-08-31T06:07:37;6.85;;;3.22;;
25531;SDS011;13429;48.816;9.118;2023-08-31T06:10:03;5.15;;;2.33;;
25531;SDS011;13429;48.816;9.118;2023-08-31T06:12:30;6.63;;;2.28;;
25531;SDS011;13429;48.816;9.118;2023-08-31T06:14:56;10.07;;;2.63;;
25531;SDS011;13429;48.816;9.118;2023-08-31T06:17:22;3.75;;;2.40;;
25531;SDS011;13429;48.816;9.118;2023-08-31T06:19:48;4.75;;;2.47;;
25531;SDS011;13429;48.816;9.118;2023-08-31T06:22:14;4.75;;;3.00;;
25531;SDS011;13429;48.816;9.118;2023-08-31T06:24:40;6.88;;;2.58;;
25531;SDS011;13429;48.816;9.118;2023-08-31T06:27:07;7.68;;;3.75;;
25531;SDS011;13429;48.816;9.118;2023-08-31T06:29:33;10.43;;;3.08;;
25531;SDS011;13429;48.816;9.118;2023-08-31T06:31:59;6.55;;;2.78;;
25531;SDS011;13429;48.816;9.118;2023-08-31T06:34:25;9.32;;;2.78;;
25531;SDS011;13429;48.816;9.118;2023-08-31T06:36:51;11.15;;;2.75;;
25531;SDS011;13429;48.816;9.118;2023-08-31T06:39:17;6.25;;;2.45;;
25531;SDS011;13429;48.816;9.118;2023-08-31T06:41:43;8.15;;;2.70;;
25531;SDS011;13429;48.816;9.118;2023-08-31T06:44:09;8.02;;;2.47;;
25531;SDS011;13429;48.816;9.118;2023-08-31T06:46:35;6.07;;;2.22;;
25531;SDS011;13429;48.816;9.118;2023-08-31T06:49:06;6.20;;;2.10;;
25531;SDS011;13429;48.816;9.118;2023-08-31T06:51:32;4.40;;;2.30;;
25531;SDS011;13429;48.816;9.118;2023-08-31T06:53:58;10.35;;;2.88;;
25531;SDS011;13429;48.816;9.118;2023-08-31T06:56:31;7.28;;;2.10;;
25531;SDS011;13429;48.816;9.118;2023-08-31T06:58:57;20.13;;;2.88;;
25531;SDS011;13429;48.816;9.118;2023-08-31T07:01:23;4.93;;;1.80;;
25531;SDS011;13429;48.816;9.118;2023-08-31T07:03:49;3.58;;;1.40;;
25531;SDS011;13429;48.816;9.118;2023-08-31T07:06:16;5.13;;;2.08;;
25531;SDS011;13429;48.816;9.118;2023-08-31T07:08:42;4.50;;;2.17;;
25531;SDS011;13429;48.816;9.118;2023-08-31T07:11:10;7.07;;;1.85;;
25531;SDS011;13429;48.816;9.118;2023-08-31T07:13:36;8.07;;;2.17;;
25531;SDS011;13429;48.816;9.118;2023-08-31T07:16:02;3.70;;;1.67;;
25531;SDS011;13429;48.816;9.118;2023-08-31T07:18:28;8.57;;;2.17;;
25531;SDS011;13429;48.816;9.118;2023-08-31T07:20:54;13.85;;;2.95;;
25531;SDS011;13429;48.816;9.118;2023-08-31T07:23:20;10.70;;;2.83;;
25531;SDS011;13429;48.816;9.118;2023-08-31T07:25:46;4.63;;;2.30;;
25531;SDS011;13429;48.816;9.118;2023-08-31T07:28:12;10.38;;;2.60;;
25531;SDS011;13429;48.816;9.118;2023-08-31T07:30:38;8.80;;;2.28;;
25531;SDS011;13429;48.816;9.118;2023-08-31T07:33:05;5.43;;;2.47;;
25531;SDS011;13429;48.816;9.118;2023-08-31T07:35:31;3.50;;;1.98;;
25531;SDS011;13429;48.816;9.118;2023-08-31T07:37:57;4.28;;;1.85;;
25531;SDS011;13429;48.816;9.118;2023-08-31T07:40:24;4.25;;;1.92;;
25531;SDS011;13429;48.816;9.118;2023-08-31T07:42:50;4.90;;;1.75;;
25531;SDS011;13429;48.816;9.118;2023-08-31T07:45:16;13.27;;;2.47;;
25531;SDS011;13429;48.816;9.118;2023-08-31T07:47:42;6.55;;;2.22;;
25531;SDS011;13429;48.816;9.118;2023-08-31T07:50:09;5.65;;;1.83;;
25531;SDS011;13429;48.816;9.118;2023-08-31T07:52:36;10.10;;;2.00;;
25531;SDS011;13429;48.816;9.118;2023-08-31T07:55:03;3.10;;;1.63;;
25531;SDS011;13429;48.816;9.118;2023-08-31T07:57:29;5.53;;;1.52;;
25531;SDS011;13429;48.816;9.118;2023-08-31T07:59:55;6.28;;;1.50;;
25531;SDS011;13429;48.816;9.118;2023-08-31T08:02:21;3.97;;;1.67;;
25531;SDS011;13429;48.816;9.118;2023-08-31T08:04:47;5.18;;;1.98;;
25531;SDS011;13429;48.816;9.118;2023-08-31T08:07:13;4.80;;;2.35;;
25531;SDS011;13429;48.816;9.118;2023-08-31T08:09:39;27.10;;;2.67;;
25531;SDS011;13429;48.816;9.118;2023-08-31T08:12:06;6.05;;;1.45;;
25531;SDS011;13429;48.816;9.118;2023-08-31T08:14:32;5.55;;;1.60;;
25531;SDS011;13429;48.816;9.118;2023-08-31T08:16:59;7.70;;;1.73;;
25531;SDS011;13429;48.816;9.118;2023-08-31T08:19:25;8.95;;;2.35;;
25531;SDS011;13429;48.816;9.118;2023-08-31T08:21:51;3.13;;;1.70;;
25531;SDS011;13429;48.816;9.118;2023-08-31T08:24:17;9.23;;;2.05;;
25531;SDS011;13429;48.816;9.118;2023-08-31T08:26:43;8.05;;;2.97;;
25531;SDS011;13429;48.816;9.118;2023-08-31T08:29:09;6.13;;;2.22;;
25531;SDS011;13429;48.816;9.118;2023-08-31T08:31:35;14.52;;;2.42;;
25531;SDS011;13429;48.816;9.118;2023-08-31T08:34:01;4.18;;;2.00;;
25531;SDS011;13429;48.816;9.118;2023-08-31T08:36:28;4.72;;;1.60;;
25531;SDS011;13429;48.816;9.118;2023-08-31T08:38:54;6.22;;;1.50;;
25531;SDS011;13429;48.816;9.118;2023-08-31T08:41:22;3.13;;;1.55;;
25531;SDS011;13429;48.816;9.118;2023-08-31T08:43:49;3.75;;;1.67;;
25531;SDS011;13429;48.816;9.118;2023-08-31T08:46:16;6.60;;;1.40;;
25531;SDS011;13429;48.816;9.118;2023-08-31T08:48:42;5.75;;;1.58;;
25531;SDS011;13429;48.816;9.118;2023-08-31T08:51:10;5.03;;;1.90;;
25531;SDS011;13429;48.816;9.118;2023-08-31T08:53:36;5.80;;;1.77;;
25531;SDS011;13429;48.816;9.118;2023-08-31T08:56:04;3.75;;;1.80;;
25531;SDS011;13429;48.816;9.118;2023-08-31T08:58:30;5.47;;;1.80;;
25531;SDS011;13429;48.816;9.118;2023-08-31T09:00:56;3.63;;;1.88;;
25531;SDS011;13429;48.816;9.118;2023-08-31T09:03:23;8.80;;;1.80;;
25531;SDS011;13429;48.816;9.118;2023-08-31T09:05:49;4.10;;;1.90;;
25531;SDS011;13429;48.816;9.118;2023-08-31T09:08:16;6.00;;;1.58;;
25531;SDS011;13429;48.816;9.118;2023-08-31T09:10:43;4.38;;;1.83;;
25531;SDS011;13429;48.816;9.118;2023-08-31T09:13:10;3.88;;;2.10;;
25531;SDS011;13429;48.816;9.118;2023-08-31T09:15:57;3.65;;;1.70;;
25531;SDS011;13429;48.816;9.118;2023-08-31T09:18:26;5.60;;;1.90;;
25531;SDS011;13429;48.816;9.118;2023-08-31T09:20:52;7.00;;;1.70;;
25531;SDS011;13429;48.816;9.118;2023-08-31T09:23:19;3.28;;;1.60;;
25531;SDS011;13429;48.816;9.118;2023-08-31T09:25:46;5.32;;;1.58;;
25531;SDS011;13429;48.816;9.118;2023-08-31T09:28:14;5.22;;;1.80;;
25531;SDS011;13429;48.816;9.118;2023-08-31T09:30:40;3.90;;;1.65;;
25531;SDS011;13429;48.816;9.118;2023-08-31T09:33:07;4.07;;;1.50;;
25531;SDS011;13429;48.816;9.118;2023-08-31T09:35:34;2.65;;;1.30;;
25531;SDS011;13429;48.816;9.118;2023-08-31T09:38:06;4.72;;;1.20;;
25531;SDS011;13429;48.816;9.118;2023-08-31T09:40:32;5.20;;;1.85;;
25531;SDS011;13429;48.816;9.118;2023-08-31T09:42:58;5.47;;;1.73;;
25531;SDS011;13429;48.816;9.118;2023-08-31T09:45:31;4.68;;;1.58;;
25531;SDS011;13429;48.816;9.118;2023-08-31T09:48:01;4.65;;;1.50;;
25531;SDS011;13429;48.816;9.118;2023-08-31T09:50:30;4.53;;;1.90;;
25531;SDS011;13429;48.816;9.118;2023-08-31T09:53:01;3.13;;;1.63;;
25531;SDS011;13429;48.816;9.118;2023-08-31T09:55:29;4.68;;;1.52;;
25531;SDS011;13429;48.816;9.118;2023-08-31T09:57:56;4.55;;;1.50;;
25531;SDS011;13429;48.816;9.118;2023-08-31T10:00:26;4.38;;;2.00;;
25531;SDS011;13429;48.816;9.118;2023-08-31T10:02:53;3.20;;;1.13;;
25531;SDS011;13429;48.816;9.118;2023-08-31T10:05:20;4.43;;;1.30;;
25531;SDS011;13429;48.816;9.118;2023-08-31T10:07:48;8.55;;;2.20;;
25531;SDS011;13429;48.816;9.118;2023-08-31T10:10:14;3.67;;;1.55;;
25531;SDS011;13429;48.816;9.118;2023-08-31T10:12:40;6.38;;;1.65;;
25531;SDS011;13429;48.816;9.118;2023-08-31T10:15:08;3.38;;;1.45;;
25531;SDS011;13429;48.816;9.118;2023-08-31T10:17:34;3.75;;;1.90;;
25531;SDS011;13429;48.816;9.118;2023-08-31T10:20:00;3.78;;;1.65;;
25531;SDS011;13429;48.816;9.118;2023-08-31T10:22:27;5.00;;;1.50;;
25531;SDS011;13429;48.816;9.118;2023-08-31T10:25:05;5.53;;;1.52;;
25531;SDS011;13429;48.816;9.118;2023-08-31T10:27:40;4.00;;;2.00;;
25531;SDS011;13429;48.816;9.118;2023-08-31T10:35:52;6.35;;;2.17;;
25531;SDS011;13429;48.816;9.118;2023-08-31T10:38:31;3.78;;;1.73;;
25531;SDS011;13429;48.816;9.118;2023-08-31T10:46:30;6.28;;;2.03;;
25531;SDS011;13429;48.816;9.118;2023-08-31T10:51:29;5.18;;;1.65;;
25531;SDS011;13429;48.816;9.118;2023-08-31T10:56:52;6.00;;;1.83;;
25531;SDS011;13429;48.816;9.118;2023-08-31T10:59:19;6.63;;;1.67;;
25531;SDS011;13429;48.816;9.118;2023-08-31T11:04:25;9.43;;;1.92;;
25531;SDS011;13429;48.816;9.118;2023-08-31T11:09:36;6.88;;;2.22;;
25531;SDS011;13429;48.816;9.118;2023-08-31T11:12:03;6.45;;;2.58;;
25531;SDS011;13429;48.816;9.118;2023-08-31T11:14:29;8.15;;;2.20;;
25531;SDS011;13429;48.816;9.118;2023-08-31T11:16:55;4.90;;;1.70;;
25531;SDS011;13429;48.816;9.118;2023-08-31T11:19:21;5.47;;;2.00;;
25531;SDS011;13429;48.816;9.118;2023-08-31T11:21:47;7.65;;;2.17;;
25531;SDS011;13429;48.816;9.118;2023-08-31T11:24:14;6.57;;;1.35;;
25531;SDS011;13429;48.816;9.118;2023-08-31T11:26:41;4.50;;;1.42;;
25531;SDS011;13429;48.816;9.118;2023-08-31T11:29:07;6.20;;;2.00;;
25531;SDS011;13429;48.816;9.118;2023-08-31T11:31:40;5.65;;;1.60;;
25531;SDS011;13429;48.816;9.118;2023-08-31T11:34:06;5.28;;;1.95;;
25531;SDS011;13429;48.816;9.118;2023-08-31T11:36:33;4.90;;;1.67;;
25531;SDS011;13429;48.816;9.118;2023-08-31T11:39:00;4.90;;;1.80;;
25531;SDS011;13429;48.816;9.118;2023-08-31T11:41:29;7.90;;;2.30;;
25531;SDS011;13429;48.816;9.118;2023-08-31T11:43:56;8.05;;;1.90;;
25531;SDS011;13429;48.816;9.118;2023-08-31T11:46:22;4.38;;;1.80;;
25531;SDS011;13429;48.816;9.118;2023-08-31T11:48:48;4.70;;;2.00;;
25531;SDS011;13429;48.816;9.118;2023-08-31T11:51:14;5.25;;;1.33;;
25531;SDS011;13429;48.816;9.118;2023-08-31T11:53:40;4.88;;;1.55;;
25531;SDS011;13429;48.816;9.118;2023-08-31T11:56:06;6.20;;;2.13;;
25531;SDS011;13429;48.816;9.118;2023-08-31T11:58:32;10.40;;;2.20;;
25531;SDS011;13429;48.816;9.118;2023-08-31T12:00:58;6.22;;;2.47;;
25531;SDS011;13429;48.816;9.118;2023-08-31T12:03:25;5.80;;;1.88;;
25531;SDS011;13429;48.816;9.118;2023-08-31T12:05:51;3.92;;;1.55;;
25531;SDS011;13429;48.816;9.118;2023-08-31T12:08:26;4.70;;;1.77;;
25531;SDS011;13429;48.816;9.118;2023-08-31T12:10:52;4.82;;;1.80;;
25531;SDS011;13429;48.816;9.118;2023-08-31T12:13:18;4.13;;;1.63;;
25531;SDS011;13429;48.816;9.118;2023-08-31T12:15:44;5.47;;;1.70;;
25531;SDS011;13429;48.816;9.118;2023-08-31T12:18:11;6.15;;;2.15;;
25531;SDS011;13429;48.816;9.118;2023-08-31T12:20:44;9.40;;;2.33;;
25531;SDS011;13429;48.816;9.118;2023-08-31T12:23:10;4.65;;;1.75;;
25531;SDS011;13429;48.816;9.118;2023-08-31T12:25:36;5.15;;;1.60;;
25531;SDS011;13429;48.816;9.118;2023-08-31T12:28:03;4.45;;;1.58;;
25531;SDS011;13429;48.816;9.118;2023-08-31T12:30:29;6.93;;;1.73;;
25531;SDS011;13429;48.816;9.118;2023-08-31T12:32:55;5.07;;;1.88;;
25531;SDS011;13429;48.816;9.118;2023-08-31T12:35:21;6.97;;;1.48;;
25531;SDS011;13429;48.816;9.118;2023-08-31T12:37:47;3.58;;;1.45;;
25531;SDS011;13429;48.816;9.118;2023-08-31T12:40:13;5.45;;;1.52;;
25531;SDS011;13429;48.816;9.118;2023-08-31T12:42:40;3.72;;;1.35;;
25531;SDS011;13429;48.816;9.118;2023-08-31T12:45:07;5.43;;;1.77;;
25531;SDS011;13429;48.816;9.118;2023-08-31T12:47:34;5.57;;;2.05;;
25531;SDS011;13429;48.816;9.118;2023-08-31T12:50:00;3.08;;;1.42;;
25531;SDS011;13429;48.816;9.118;2023-08-31T12:52:28;4.90;;;2.13;;
25531;SDS011;13429;48.816;9.118;2023-08-31T12:54:54;9.15;;;2.22;;
25531;SDS011;13429;48.816;9.118;2023-08-31T12:57:20;5.63;;;1.52;;
25531;SDS011;13429;48.816;9.118;2023-08-31T12:59:46;6.82;;;2.03;;
25531;SDS011;13429;48.816;9.118;2023-08-31T13:02:12;4.53;;;1.50;;
25531;SDS011;13429;48.816;9.118;2023-08-31T13:04:38;4.18;;;1.92;;
25531;SDS011;13429;48.816;9.118;2023-08-31T13:07:04;4.22;;;1.60;;
25531;SDS011;13429;48.816;9.118;2023-08-31T13:09:30;5.57;;;1.45;;
25531;SDS011;13429;48.816;9.118;2023-08-31T13:11:56;4.90;;;1.83;;
25531;SDS011;13429;48.816;9.118;2023-08-31T13:14:22;7.47;;;2.13;;
25531;SDS011;13429;48.816;9.118;2023-08-31T13:16:48;3.88;;;1.52;;
25531;SDS011;13429;48.816;9.118;2023-08-31T13:19:14;8.23;;;2.05;;
25531;SDS011;13429;48.816;9.118;2023-08-31T13:21:41;8.05;;;2.28;;
25531;SDS011;13429;48.816;9.118;2023-08-31T13:24:07;3.40;;;1.50;;
25531;SDS011;13429;48.816;9.118;2023-08-31T13:26:33;4.03;;;1.75;;
25531;SDS011;13429;48.816;9.118;2023-08-31T13:29:00;6.32;;;2.53;;
25531;SDS011;13429;48.816;9.118;2023-08-31T13:31:27;9.75;;;1.98;;
25531;SDS011;13429;48.816;9.118;2023-08-31T13:33:53;2.70;;;1.55;;
25531;SDS011;13429;48.816;9.118;2023-08-31T13:36:19;3.47;;;1.40;;
25531;SDS011;13429;48.816;9.118;2023-08-31T13:38:45;2.97;;;1.70;;
25531;SDS011;13429;48.816;9.118;2023-08-31T13:41:11;7.82;;;1.92;;
25531;SDS011;13429;48.816;9.118;2023-08-31T13:43:37;4.43;;;1.50;;
25531;SDS011;13429;48.816;9.118;2023-08-31T13:46:03;4.97;;;1.67;;
25531;SDS011;13429;48.816;9.118;2023-08-31T13:48:30;2.75;;;1.65;;
25531;SDS011;13429;48.816;9.118;2023-08-31T13:50:56;4.00;;;1.83;;
25531;SDS011;13429;48.816;9.118;2023-08-31T13:53:22;5.85;;;1.70;;
25531;SDS011;13429;48.816;9.118;2023-08-31T13:55:48;3.72;;;1.52;;
25531;SDS011;13429;48.816;9.118;2023-08-31T13:58:14;5.70;;;1.77;;
25531;SDS011;13429;48.816;9.118;2023-08-31T14:00:40;4.70;;;1.48;;
25531;SDS011;13429;48.816;9.118;2023-08-31T14:03:07;3.67;;;1.42;;
25531;SDS011;13429;48.816;9.118;2023-08-31T14:05:33;4.70;;;1.38;;
25531;SDS011;13429;48.816;9.118;2023-08-31T14:07:59;6.90;;;1.67;;
25531;SDS011;13429;48.816;9.118;2023-08-31T14:10:28;4.45;;;1.92;;
25531;SDS011;13429;48.816;9.118;2023-08-31T14:12:54;4.95;;;1.65;;
25531;SDS011;13429;48.816;9.118;2023-08-31T14:15:20;6.38;;;1.70;;
25531;SDS011;13429;48.816;9.118;2023-08-31T14:17:46;7.25;;;1.80;;
25531;SDS011;13429;48.816;9.118;2023-08-31T14:20:12;7.38;;;2.38;;
25531;SDS011;13429;48.816;9.118;2023-08-31T14:22:38;3.97;;;1.50;;
25531;SDS011;13429;48.816;9.118;2023-08-31T14:25:08;6.97;;;2.15;;
25531;SDS011;13429;48.816;9.118;2023-08-31T14:27:34;6.18;;;1.95;;
25531;SDS011;13429;48.816;9.118;2023-08-31T14:30:01;2.92;;;1.50;;
25531;SDS011;13429;48.816;9.118;2023-08-31T14:32:27;3.83;;;1.48;;
25531;SDS011;13429;48.816;9.118;2023-08-31T14:34:53;6.13;;;1.45;;
25531;SDS011;13429;48.816;9.118;2023-08-31T14:37:20;5.18;;;2.22;;
25531;SDS011;13429;48.816;9.118;2023-08-31T14:39:46;4.75;;;1.80;;
25531;SDS011;13429;48.816;9.118;2023-08-31T14:42:12;4.05;;;1.65;;
25531;SDS011;13429;48.816;9.118;2023-08-31T14:44:40;7.72;;;1.88;;
25531;SDS011;13429;48.816;9.118;2023-08-31T14:47:06;8.60;;;1.75;;
25531;SDS011;13429;48.816;9.118;2023-08-31T14:49:32;3.85;;;1.30;;
25531;SDS011;13429;48.816;9.118;2023-08-31T14:51:58;5.07;;;2.13;;
25531;SDS011;13429;48.816;9.118;2023-08-31T14:54:30;9.70;;;1.90;;
25531;SDS011;13429;48.816;9.118;2023-08-31T14:56:58;5.20;;;1.60;;
25531;SDS011;13429;48.816;9.118;2023-08-31T14:59:24;4.70;;;1.40;;
25531;SDS011;13429;48.816;9.118;2023-08-31T15:01:50;5.10;;;1.23;;
25531;SDS011;13429;48.816;9.118;2023-08-31T15:04:17;3.85;;;1.42;;
25531;SDS011;13429;48.816;9.118;2023-08-31T15:06:43;3.35;;;1.38;;
25531;SDS011;13429;48.816;9.118;2023-08-31T15:09:09;6.38;;;1.60;;
25531;SDS011;13429;48.816;9.118;2023-08-31T15:11:35;12.07;;;2.63;;
25531;SDS011;13429;48.816;9.118;2023-08-31T15:14:01;5.57;;;1.77;;
25531;SDS011;13429;48.816;9.118;2023-08-31T15:16:31;7.68;;;2.03;;
25531;SDS011;13429;48.816;9.118;2023-08-31T15:18:59;5.13;;;1.98;;
25531;SDS011;13429;48.816;9.118;2023-08-31T15:21:25;4.80;;;1.73;;
25531;SDS011;13429;48.816;9.118;2023-08-31T15:23:51;5.05;;;1.58;;